createdAt,value
2023-05-14T00:00:03.406Z,223.19
2023-05-14T00:01:03.405Z,220.89
2023-05-14T00:02:03.444Z,221.60
2023-05-14T00:03:03.463Z,219.83
2023-05-14T00:04:03.459Z,222.48
2023-05-14T00:05:03.409Z,221.16
2023-05-14T00:06:03.408Z,222.33
2023-05-14T00:07:03.415Z,224.06
2023-05-14T00:08:03.421Z,220.49
2023-05-14T00:09:03.400Z,223.37
2023-05-14T00:10:03.425Z,221.21
2023-05-14T00:11:03.400Z,220.68
2023-05-14T00:12:03.420Z,221.19
2023-05-14T00:13:03.439Z,222.10
2023-05-14T00:14:03.416Z,222.72
2023-05-14T00:15:03.443Z,222.15
2023-05-14T00:16:03.497Z,221.09
2023-05-14T00:17:03.441Z,220.78
2023-05-14T00:18:03.484Z,221.38
2023-05-14T00:19:03.456Z,220.76
2023-05-14T00:20:03.459Z,223.68
2023-05-14T00:21:03.509Z,220.64
2023-05-14T00:22:03.554Z,220.22
2023-05-14T00:23:03.609Z,219.02
2023-05-14T00:24:03.665Z,220.58
2023-05-14T00:25:03.746Z,220.29
2023-05-14T00:26:03.774Z,220.95
2023-05-14T00:27:03.809Z,221.86
2023-05-14T00:28:03.958Z,222.45
2023-05-14T00:29:03.919Z,220.04
2023-05-14T00:30:03.978Z,220.99
2023-05-14T00:31:04.077Z,219.88
2023-05-14T00:32:04.081Z,221.66
2023-05-14T00:33:04.205Z,221.66
2023-05-14T00:34:04.180Z,221.40
2023-05-14T00:35:04.276Z,220.17
2023-05-14T00:36:04.346Z,221.95
2023-05-14T00:37:04.329Z,218.83
2023-05-14T00:38:04.385Z,219.29
2023-05-14T00:39:04.443Z,220.23
2023-05-14T00:40:04.474Z,220.20
2023-05-14T00:41:04.537Z,221.73
2023-05-14T00:42:04.566Z,222.03
2023-05-14T00:43:04.614Z,221.63
2023-05-14T00:44:04.669Z,219.83
2023-05-14T00:45:04.787Z,221.35
2023-05-14T00:46:04.718Z,221.50
2023-05-14T00:47:04.840Z,221.45
2023-05-14T00:48:04.782Z,221.82
2023-05-14T00:49:04.722Z,222.30
2023-05-14T00:50:04.760Z,222.09
2023-05-14T00:51:04.720Z,222.22
2023-05-14T00:52:04.716Z,219.04
2023-05-14T00:53:04.715Z,220.26
2023-05-14T00:54:04.718Z,220.28
2023-05-14T00:55:04.738Z,222.45
2023-05-14T00:56:04.729Z,220.26
2023-05-14T00:57:04.720Z,219.51
2023-05-14T00:58:04.738Z,220.47
2023-05-14T00:59:04.798Z,218.74
2023-05-14T01:00:04.859Z,221.47
2023-05-14T01:01:04.937Z,220.18
2023-05-14T01:02:04.955Z,221.02
2023-05-14T01:03:05.076Z,221.45
2023-05-14T01:04:05.089Z,221.30
2023-05-14T01:05:05.211Z,220.11
2023-05-14T01:06:05.173Z,221.16
2023-05-14T01:07:05.227Z,221.50
2023-05-14T01:08:05.295Z,219.41
2023-05-14T01:09:05.341Z,221.90
2023-05-14T01:10:05.395Z,221.38
2023-05-14T01:11:05.444Z,220.07
2023-05-14T01:12:05.509Z,223.21
2023-05-14T01:13:05.572Z,220.39
2023-05-14T01:14:05.624Z,220.01
2023-05-14T01:15:05.689Z,220.62
2023-05-14T01:16:05.789Z,219.60
2023-05-14T01:17:05.807Z,219.94
2023-05-14T01:18:05.918Z,219.70
2023-05-14T01:19:05.945Z,221.29
2023-05-14T01:20:05.975Z,218.07
2023-05-14T01:21:06.041Z,219.16
2023-05-14T01:22:06.090Z,218.23
2023-05-14T01:23:06.131Z,220.39
2023-05-14T01:24:06.128Z,220.49
2023-05-14T01:25:06.140Z,220.68
2023-05-14T01:26:06.129Z,220.61
2023-05-14T01:27:06.133Z,220.74
2023-05-14T01:28:06.126Z,220.62
2023-05-14T01:29:06.113Z,219.83
2023-05-14T01:30:06.148Z,219.89
2023-05-14T01:31:06.109Z,219.75
2023-05-14T01:32:06.189Z,222.32
2023-05-14T01:33:06.170Z,221.85
2023-05-14T01:34:06.114Z,219.32
2023-05-14T01:35:06.174Z,219.05
2023-05-14T01:36:06.194Z,218.99
2023-05-14T01:37:06.263Z,219.94
2023-05-14T01:38:06.316Z,219.53
2023-05-14T01:39:06.367Z,220.19
2023-05-14T01:40:06.422Z,219.50
2023-05-14T01:41:06.466Z,218.41
2023-05-14T01:42:06.529Z,219.66
2023-05-14T01:43:06.655Z,218.71
2023-05-14T01:44:06.603Z,219.92
2023-05-14T01:45:06.691Z,218.83
2023-05-14T01:46:06.746Z,218.60
2023-05-14T01:47:06.777Z,220.14
2023-05-14T01:48:06.848Z,219.53
2023-05-14T01:49:06.874Z,218.93
2023-05-14T01:50:06.933Z,218.60
2023-05-14T01:51:06.978Z,219.56
2023-05-14T01:52:07.037Z,218.60
2023-05-14T01:53:07.110Z,217.43
2023-05-14T01:54:07.129Z,219.03
2023-05-14T01:55:07.212Z,218.34
2023-05-14T01:56:07.241Z,220.16
2023-05-14T01:57:07.288Z,220.31
2023-05-14T01:58:07.338Z,218.84
2023-05-14T01:59:07.382Z,218.63
2023-05-14T02:00:07.490Z,218.68
2023-05-14T02:01:07.500Z,218.31
2023-05-14T02:02:07.528Z,219.32
2023-05-14T02:03:07.667Z,218.86
2023-05-14T02:04:07.696Z,216.42
2023-05-14T02:05:07.690Z,218.76
2023-05-14T02:06:07.734Z,218.21
2023-05-14T02:07:07.801Z,218.13
2023-05-14T02:08:07.846Z,219.19
2023-05-14T02:09:07.935Z,218.39
2023-05-14T02:10:07.986Z,218.52
2023-05-14T02:11:08.000Z,218.16
2023-05-14T02:12:08.061Z,218.59
2023-05-14T02:13:08.057Z,218.82
2023-05-14T02:14:08.047Z,218.76
2023-05-14T02:15:08.059Z,218.90
2023-05-14T02:16:08.167Z,218.67
2023-05-14T02:17:08.070Z,219.63
2023-05-14T02:18:08.053Z,219.07
2023-05-14T02:19:08.194Z,220.80
2023-05-14T02:20:08.031Z,218.65
2023-05-14T02:21:08.033Z,218.92
2023-05-14T02:22:08.028Z,218.55
2023-05-14T02:23:08.048Z,217.09
2023-05-14T02:24:08.086Z,221.23
2023-05-14T02:25:08.150Z,218.01
2023-05-14T02:26:08.201Z,217.88
2023-05-14T02:27:08.245Z,218.25
2023-05-14T02:28:08.284Z,216.27
2023-05-14T02:29:08.330Z,219.40
2023-05-14T02:30:08.386Z,220.31
2023-05-14T02:31:08.463Z,218.07
2023-05-14T02:32:08.546Z,217.67
2023-05-14T02:33:08.593Z,216.88
2023-05-14T02:34:08.595Z,219.62
2023-05-14T02:35:08.625Z,217.76
2023-05-14T02:36:08.682Z,217.25
2023-05-14T02:37:08.715Z,219.68
2023-05-14T02:38:08.764Z,217.14
2023-05-14T02:39:08.827Z,216.10
2023-05-14T02:40:08.866Z,217.41
2023-05-14T02:41:08.921Z,217.59
2023-05-14T02:42:08.959Z,217.47
2023-05-14T02:43:09.006Z,217.22
2023-05-14T02:44:09.060Z,216.25
2023-05-14T02:45:09.118Z,218.92
2023-05-14T02:46:09.180Z,218.97
2023-05-14T02:47:09.366Z,214.16
2023-05-14T02:48:09.350Z,211.01
2023-05-14T02:49:09.267Z,211.16
2023-05-14T02:50:09.249Z,195.46
2023-05-14T02:51:09.252Z,177.65
2023-05-14T02:52:09.230Z,170.97
2023-05-14T02:53:09.247Z,165.51
2023-05-14T02:54:09.226Z,165.88
2023-05-14T02:55:09.208Z,155.04
2023-05-14T02:56:09.204Z,152.46
2023-05-14T02:57:09.218Z,144.05
2023-05-14T02:58:09.193Z,137.56
2023-05-14T02:59:09.220Z,130.73
2023-05-14T03:00:09.208Z,125.28
2023-05-14T03:01:09.281Z,117.91
2023-05-14T03:02:09.300Z,116.21
2023-05-14T03:03:09.259Z,110.89
2023-05-14T03:04:09.238Z,104.48
2023-05-14T03:05:09.228Z,99.10
2023-05-14T03:06:09.247Z,96.06
2023-05-14T03:07:09.228Z,94.11
2023-05-14T03:08:09.296Z,86.80
2023-05-14T03:09:09.241Z,87.39
2023-05-14T03:10:09.240Z,81.45
2023-05-14T03:11:09.261Z,77.72
2023-05-14T03:12:09.253Z,72.57
2023-05-14T03:13:09.264Z,70.69
2023-05-14T03:14:09.263Z,67.75
2023-05-14T03:15:09.272Z,61.94
2023-05-14T03:16:09.284Z,62.82
2023-05-14T03:17:09.335Z,55.75
2023-05-14T03:18:09.332Z,58.85
2023-05-14T03:19:09.398Z,53.95
2023-05-14T03:20:09.303Z,53.62
2023-05-14T03:21:09.325Z,58.14
2023-05-14T03:22:09.340Z,47.59
2023-05-14T03:23:09.439Z,54.13
2023-05-14T03:24:09.465Z,54.12
2023-05-14T03:25:09.424Z,50.54
2023-05-14T03:26:09.454Z,46.47
2023-05-14T03:27:09.482Z,40.49
2023-05-14T03:28:09.496Z,43.18
2023-05-14T03:29:09.530Z,36.73
2023-05-14T03:30:09.600Z,37.21
2023-05-14T03:31:09.655Z,43.79
2023-05-14T03:32:09.633Z,36.42
2023-05-14T03:33:09.671Z,38.31
2023-05-14T03:34:09.714Z,31.93
2023-05-14T03:35:09.709Z,32.21
2023-05-14T03:36:09.723Z,31.94
2023-05-14T03:37:09.706Z,32.68
2023-05-14T03:38:09.716Z,33.34
2023-05-14T03:39:09.751Z,34.52
2023-05-14T03:40:09.704Z,35.43
2023-05-14T03:41:09.731Z,33.78
2023-05-14T03:42:09.710Z,33.81
2023-05-14T03:43:09.724Z,33.83
2023-05-14T03:44:09.730Z,32.54
2023-05-14T03:45:09.735Z,33.73
2023-05-14T03:46:09.763Z,27.92
2023-05-14T03:47:09.758Z,26.21
2023-05-14T03:48:09.852Z,31.60
2023-05-14T03:49:09.818Z,25.71
2023-05-14T03:50:09.775Z,31.51
2023-05-14T03:51:09.792Z,29.02
2023-05-14T03:52:09.779Z,24.42
2023-05-14T03:53:09.775Z,29.19
2023-05-14T03:54:09.785Z,31.07
2023-05-14T03:55:09.793Z,30.55
2023-05-14T03:56:09.863Z,29.57
2023-05-14T03:57:09.902Z,29.52
2023-05-14T03:58:09.959Z,31.09
2023-05-14T03:59:09.996Z,30.26
2023-05-14T04:00:10.066Z,31.40
2023-05-14T04:01:10.113Z,31.43
2023-05-14T04:02:10.209Z,28.49
2023-05-14T04:03:10.322Z,25.00
2023-05-14T04:04:10.412Z,30.60
2023-05-14T04:05:10.411Z,27.63
2023-05-14T04:06:10.420Z,28.14
2023-05-14T04:07:10.454Z,29.34
2023-05-14T04:08:10.547Z,31.01
2023-05-14T04:09:10.593Z,29.59
2023-05-14T04:10:10.646Z,26.19
2023-05-14T04:11:10.708Z,29.54
2023-05-14T04:12:10.805Z,30.40
2023-05-14T04:13:10.826Z,29.71
2023-05-14T04:14:10.845Z,29.77
2023-05-14T04:15:10.845Z,29.74
2023-05-14T04:16:10.897Z,28.84
2023-05-14T04:17:10.871Z,28.42
2023-05-14T04:18:10.932Z,27.26
2023-05-14T04:19:10.943Z,29.32
2023-05-14T04:20:10.894Z,28.34
2023-05-14T04:21:10.873Z,27.94
2023-05-14T04:22:10.884Z,30.86
2023-05-14T04:23:10.904Z,30.34
2023-05-14T04:24:10.890Z,29.08
2023-05-14T04:25:10.954Z,28.15
2023-05-14T04:26:11.046Z,26.57
2023-05-14T04:27:11.084Z,26.04
2023-05-14T04:28:11.180Z,25.25
2023-05-14T04:29:11.239Z,25.75
2023-05-14T04:30:11.317Z,25.00
2023-05-14T04:31:11.408Z,25.00
2023-05-14T04:32:11.441Z,25.00
2023-05-14T04:33:11.516Z,25.00
2023-05-14T04:34:11.588Z,25.68
2023-05-14T04:35:11.626Z,25.46
2023-05-14T04:36:11.700Z,25.00
2023-05-14T04:37:11.725Z,25.11
2023-05-14T04:38:11.710Z,25.10
2023-05-14T04:39:11.730Z,25.73
2023-05-14T04:40:11.744Z,25.15
2023-05-14T04:41:11.746Z,25.76
2023-05-14T04:42:11.744Z,26.26
2023-05-14T04:43:11.741Z,26.74
2023-05-14T04:44:11.769Z,27.07
2023-05-14T04:45:11.755Z,29.11
2023-05-14T04:46:11.841Z,26.93
2023-05-14T04:47:11.790Z,28.29
2023-05-14T04:48:11.817Z,27.17
2023-05-14T04:49:11.796Z,27.92
2023-05-14T04:50:11.826Z,29.39
2023-05-14T04:51:11.858Z,30.66
2023-05-14T04:52:11.905Z,29.43
2023-05-14T04:53:11.982Z,31.56
2023-05-14T04:54:12.075Z,29.38
2023-05-14T04:55:12.122Z,31.18
2023-05-14T04:56:12.202Z,31.71
2023-05-14T04:57:12.197Z,31.78
2023-05-14T04:58:12.200Z,31.94
2023-05-14T04:59:12.221Z,32.50
2023-05-14T05:00:12.225Z,31.83
2023-05-14T05:01:12.287Z,31.90
2023-05-14T05:02:12.262Z,31.88
2023-05-14T05:03:12.327Z,32.27
2023-05-14T05:04:12.323Z,32.11
2023-05-14T05:05:12.279Z,32.65
2023-05-14T05:06:12.337Z,31.99
2023-05-14T05:07:12.307Z,31.02
2023-05-14T05:08:12.330Z,29.93
2023-05-14T05:09:12.364Z,30.03
2023-05-14T05:10:12.352Z,29.62
2023-05-14T05:11:12.374Z,30.26
2023-05-14T05:12:12.415Z,30.54
2023-05-14T05:13:12.408Z,30.14
2023-05-14T05:14:12.412Z,30.08
2023-05-14T05:15:12.428Z,29.95
2023-05-14T05:16:12.497Z,30.45
2023-05-14T05:17:12.446Z,30.65
2023-05-14T05:18:12.475Z,30.60
2023-05-14T05:19:12.671Z,29.84
2023-05-14T05:20:12.471Z,28.34
2023-05-14T05:21:12.503Z,29.36
2023-05-14T05:22:12.481Z,27.55
2023-05-14T05:23:12.489Z,29.31
2023-05-14T05:24:12.501Z,28.86
2023-05-14T05:25:12.521Z,27.82
2023-05-14T05:26:12.568Z,26.78
2023-05-14T05:27:12.632Z,25.99
2023-05-14T05:28:12.687Z,25.31
2023-05-14T05:29:12.750Z,25.82
2023-05-14T05:30:12.838Z,26.17
2023-05-14T05:31:12.936Z,25.37
2023-05-14T05:32:12.938Z,27.12
2023-05-14T05:33:13.015Z,25.85
2023-05-14T05:34:13.073Z,26.69
2023-05-14T05:35:13.142Z,26.29
2023-05-14T05:36:13.210Z,25.56
2023-05-14T05:37:13.271Z,25.61
2023-05-14T05:38:13.333Z,26.14
2023-05-14T05:39:13.409Z,25.51
2023-05-14T05:40:13.462Z,27.23
2023-05-14T05:41:13.520Z,25.80
2023-05-14T05:42:13.625Z,28.15
2023-05-14T05:43:13.675Z,26.49
2023-05-14T05:44:13.721Z,26.41
2023-05-14T05:45:13.780Z,27.97
2023-05-14T05:46:13.901Z,27.69
2023-05-14T05:47:13.940Z,28.08
2023-05-14T05:48:13.974Z,28.77
2023-05-14T05:49:14.043Z,28.45
2023-05-14T05:50:14.134Z,29.38
2023-05-14T05:51:14.173Z,29.33
2023-05-14T05:52:14.258Z,29.97
2023-05-14T05:53:14.318Z,30.27
2023-05-14T05:54:14.378Z,28.23
2023-05-14T05:55:14.450Z,28.51
2023-05-14T05:56:14.512Z,25.09
2023-05-14T05:57:14.577Z,26.03
2023-05-14T05:58:14.654Z,25.97
2023-05-14T05:59:14.779Z,25.04
2023-05-14T06:00:14.773Z,25.00
2023-05-14T06:01:14.847Z,26.78
2023-05-14T06:02:14.987Z,25.94
2023-05-14T06:03:15.028Z,26.73
2023-05-14T06:04:15.053Z,26.15
2023-05-14T06:05:15.184Z,25.99
2023-05-14T06:06:15.199Z,25.18
2023-05-14T06:07:15.257Z,25.49
2023-05-14T06:08:15.356Z,27.24
2023-05-14T06:09:15.472Z,27.02
2023-05-14T06:10:15.505Z,26.47
2023-05-14T06:11:15.556Z,27.05
2023-05-14T06:12:15.633Z,26.77
2023-05-14T06:13:15.702Z,26.58
2023-05-14T06:14:15.717Z,26.67
2023-05-14T06:15:15.707Z,26.89
2023-05-14T06:16:15.751Z,27.03
2023-05-14T06:17:15.728Z,27.49
2023-05-14T06:18:15.743Z,28.21
2023-05-14T06:19:15.860Z,26.76
2023-05-14T06:20:15.753Z,27.30
2023-05-14T06:21:15.759Z,27.90
2023-05-14T06:22:15.785Z,28.06
2023-05-14T06:23:15.779Z,28.70
2023-05-14T06:24:15.779Z,28.87
2023-05-14T06:25:15.781Z,27.70
2023-05-14T06:26:15.802Z,27.63
2023-05-14T06:27:15.791Z,25.91
2023-05-14T06:28:15.800Z,28.62
2023-05-14T06:29:15.801Z,26.55
2023-05-14T06:30:15.832Z,26.17
2023-05-14T06:31:15.887Z,26.27
2023-05-14T06:32:16.063Z,26.06
2023-05-14T06:33:16.025Z,26.52
2023-05-14T06:34:16.086Z,27.23
2023-05-14T06:35:16.144Z,25.06
2023-05-14T06:36:16.203Z,26.18
2023-05-14T06:37:16.269Z,25.00
2023-05-14T06:38:16.319Z,25.57
2023-05-14T06:39:16.380Z,26.06
2023-05-14T06:40:16.437Z,25.68
2023-05-14T06:41:16.500Z,26.00
2023-05-14T06:42:16.561Z,25.44
2023-05-14T06:43:16.615Z,25.00
2023-05-14T06:44:16.665Z,25.38
2023-05-14T06:45:16.712Z,26.62
2023-05-14T06:46:16.776Z,25.45
2023-05-14T06:47:16.825Z,26.04
2023-05-14T06:48:16.998Z,25.35
2023-05-14T06:49:17.111Z,26.35
2023-05-14T06:50:16.989Z,25.23
2023-05-14T06:51:17.048Z,25.00
2023-05-14T06:52:17.077Z,25.63
2023-05-14T06:53:17.199Z,25.60
2023-05-14T06:54:17.196Z,25.00
2023-05-14T06:55:17.236Z,25.83
2023-05-14T06:56:17.294Z,26.06
2023-05-14T06:57:17.349Z,25.51
2023-05-14T06:58:17.413Z,27.38
2023-05-14T06:59:17.497Z,26.60
2023-05-14T07:00:17.548Z,25.89
2023-05-14T07:01:17.694Z,25.00
2023-05-14T07:02:17.685Z,27.23
2023-05-14T07:03:17.755Z,29.28
2023-05-14T07:04:17.836Z,29.07
2023-05-14T07:05:17.863Z,32.01
2023-05-14T07:06:17.944Z,33.35
2023-05-14T07:07:17.979Z,32.76
2023-05-14T07:08:18.040Z,31.59
2023-05-14T07:09:18.123Z,30.97
2023-05-14T07:10:18.191Z,29.24
2023-05-14T07:11:18.251Z,28.15
2023-05-14T07:12:18.323Z,28.70
2023-05-14T07:13:18.378Z,25.13
2023-05-14T07:14:18.453Z,26.39
2023-05-14T07:15:18.542Z,26.17
2023-05-14T07:16:18.598Z,27.06
2023-05-14T07:17:18.745Z,25.31
2023-05-14T07:18:18.771Z,26.52
2023-05-14T07:19:18.891Z,25.00
2023-05-14T07:20:18.882Z,25.47
2023-05-14T07:21:18.956Z,25.52
2023-05-14T07:22:19.042Z,26.08
2023-05-14T07:23:19.971Z,25.00
2023-05-14T07:24:19.117Z,25.03
2023-05-14T07:25:19.114Z,25.04
2023-05-14T07:26:19.108Z,24.87
2023-05-14T07:27:19.112Z,21.40
2023-05-14T07:28:19.102Z,19.05
2023-05-14T07:29:19.136Z,25.00
2023-05-14T07:30:19.108Z,25.24
2023-05-14T07:31:19.180Z,24.92
2023-05-14T07:32:19.119Z,25.05
2023-05-14T07:33:19.151Z,25.04
2023-05-14T07:34:19.241Z,25.00
2023-05-14T07:35:19.298Z,25.77
2023-05-14T07:36:19.377Z,25.74
2023-05-14T07:37:19.811Z,25.48
2023-05-14T07:38:19.509Z,25.19
2023-05-14T07:39:19.518Z,24.84
2023-05-14T07:40:19.526Z,23.74
2023-05-14T07:41:19.516Z,22.43
2023-05-14T07:42:28.287Z,21.72
2023-05-14T07:43:20.563Z,21.76
2023-05-14T07:44:19.531Z,20.04
2023-05-14T07:45:19.531Z,18.82
2023-05-14T07:46:19.549Z,15.48
2023-05-14T07:47:19.576Z,14.36
2023-05-14T07:48:19.593Z,14.62
2023-05-14T07:49:19.549Z,10.14
2023-05-14T07:50:19.555Z,8.09
2023-05-14T07:51:19.551Z,4.93
2023-05-14T07:52:19.586Z,1.21
2023-05-14T07:53:19.562Z,11.78
2023-05-14T07:54:19.562Z,23.32
2023-05-14T07:55:19.566Z,25.39
2023-05-14T07:56:19.612Z,24.86
2023-05-14T07:57:19.683Z,25.67
2023-05-14T07:58:19.669Z,25.06
2023-05-14T07:59:19.690Z,23.79
2023-05-14T08:00:19.687Z,23.26
2023-05-14T08:01:19.696Z,21.68
2023-05-14T08:02:19.740Z,21.86
2023-05-14T08:03:19.904Z,25.00
2023-05-14T08:04:19.802Z,25.00
2023-05-14T08:05:19.727Z,25.09
2023-05-14T08:06:19.741Z,25.32
2023-05-14T08:07:19.823Z,26.03
2023-05-14T08:08:19.884Z,27.08
2023-05-14T08:09:19.962Z,26.33
2023-05-14T08:10:20.140Z,25.35
2023-05-14T08:11:20.076Z,25.36
2023-05-14T08:12:20.057Z,24.97
2023-05-14T08:13:20.053Z,22.51
2023-05-14T08:14:20.060Z,22.74
2023-05-14T08:15:20.087Z,22.67
2023-05-14T08:16:20.156Z,21.74
2023-05-14T08:17:20.095Z,21.57
2023-05-14T08:18:20.086Z,21.13
2023-05-14T08:19:20.231Z,25.38
2023-05-14T08:20:20.102Z,25.98
2023-05-14T08:21:20.112Z,25.90
2023-05-14T08:22:20.123Z,25.91
2023-05-14T08:23:20.121Z,25.54
2023-05-14T08:24:20.180Z,26.01
2023-05-14T08:25:20.233Z,26.01
2023-05-14T08:26:20.289Z,25.81
2023-05-14T08:27:20.387Z,25.56
2023-05-14T08:28:20.424Z,25.74
2023-05-14T08:29:20.477Z,25.31
2023-05-14T08:30:20.545Z,25.00
2023-05-14T08:31:20.658Z,25.00
2023-05-14T08:32:23.707Z,27.44
2023-05-14T08:33:20.669Z,26.75
2023-05-14T08:34:20.670Z,25.25
2023-05-14T08:35:20.686Z,25.35
2023-05-14T08:36:20.686Z,25.54
2023-05-14T08:37:20.698Z,25.00
2023-05-14T08:38:20.703Z,23.75
2023-05-14T08:39:20.722Z,26.25
2023-05-14T08:40:20.741Z,26.23
2023-05-14T08:41:20.716Z,26.26
2023-05-14T08:42:20.724Z,24.70
2023-05-14T08:43:20.714Z,23.88
2023-05-14T08:44:20.706Z,22.14
2023-05-14T08:45:20.721Z,20.49
2023-05-14T08:46:20.722Z,21.78
2023-05-14T08:47:20.755Z,25.00
2023-05-14T08:48:20.853Z,26.33
2023-05-14T08:49:20.840Z,29.78
2023-05-14T08:50:23.046Z,35.26
2023-05-14T08:51:20.742Z,40.95
2023-05-14T08:52:20.765Z,47.38
2023-05-14T08:53:20.770Z,50.89
2023-05-14T08:54:20.767Z,54.81
2023-05-14T08:55:20.777Z,58.78
2023-05-14T08:56:20.774Z,61.67
2023-05-14T08:57:20.779Z,66.19
2023-05-14T08:58:20.803Z,70.43
2023-05-14T08:59:20.799Z,75.49
2023-05-14T09:00:20.854Z,77.20
2023-05-14T09:01:20.818Z,81.81
2023-05-14T09:02:20.923Z,86.80
2023-05-14T09:03:20.830Z,85.56
2023-05-14T09:04:20.883Z,91.15
2023-05-14T09:05:20.809Z,94.87
2023-05-14T09:06:20.825Z,97.02
2023-05-14T09:07:20.816Z,98.59
2023-05-14T09:08:20.810Z,104.92
2023-05-14T09:09:20.818Z,105.57
2023-05-14T09:10:20.813Z,108.17
2023-05-14T09:11:20.808Z,110.81
2023-05-14T09:12:20.822Z,112.92
2023-05-14T09:13:20.828Z,117.00
2023-05-14T09:14:20.813Z,121.99
2023-05-14T09:15:20.835Z,122.35
2023-05-14T09:16:20.842Z,126.12
2023-05-14T09:17:20.854Z,126.08
2023-05-14T09:18:20.805Z,130.57
2023-05-14T09:19:20.860Z,130.87
2023-05-14T09:20:20.974Z,136.16
2023-05-14T09:21:20.798Z,135.64
2023-05-14T09:22:20.816Z,136.58
2023-05-14T09:23:20.797Z,141.04
2023-05-14T09:24:20.807Z,144.49
2023-05-14T09:25:20.799Z,146.83
2023-05-14T09:26:20.806Z,146.65
2023-05-14T09:27:20.844Z,149.56
2023-05-14T09:28:20.808Z,150.17
2023-05-14T09:29:20.807Z,152.89
2023-05-14T09:30:20.844Z,155.36
2023-05-14T09:31:20.817Z,154.83
2023-05-14T09:32:20.812Z,158.58
2023-05-14T09:33:20.815Z,159.35
2023-05-14T09:34:20.827Z,163.24
2023-05-14T09:35:20.830Z,163.07
2023-05-14T09:36:20.793Z,165.53
2023-05-14T09:37:20.803Z,166.61
2023-05-14T09:38:20.801Z,168.32
2023-05-14T09:39:20.802Z,169.16
2023-05-14T09:40:20.932Z,170.03
2023-05-14T09:41:20.796Z,173.37
2023-05-14T09:42:20.796Z,172.46
2023-05-14T09:43:20.799Z,174.36
2023-05-14T09:44:20.808Z,176.40
2023-05-14T09:45:20.800Z,177.48
2023-05-14T09:46:20.795Z,177.58
2023-05-14T09:47:20.903Z,178.01
2023-05-14T09:48:20.828Z,178.78
2023-05-14T09:49:20.804Z,180.12
2023-05-14T09:50:20.818Z,183.47
2023-05-14T09:51:20.795Z,181.88
2023-05-14T09:52:20.794Z,184.64
2023-05-14T09:53:20.795Z,184.30
2023-05-14T09:54:20.877Z,185.77
2023-05-14T09:55:20.947Z,186.43
2023-05-14T09:56:21.034Z,187.29
2023-05-14T09:57:21.103Z,188.42
2023-05-14T09:58:21.158Z,188.76
2023-05-14T09:59:21.261Z,189.43
2023-05-14T10:00:21.404Z,190.02
2023-05-14T10:01:21.380Z,190.45
2023-05-14T10:02:21.497Z,192.15
2023-05-14T10:03:21.509Z,193.16
2023-05-14T10:04:21.644Z,193.17
2023-05-14T10:05:21.626Z,193.86
2023-05-14T10:06:21.694Z,193.44
2023-05-14T10:07:21.773Z,193.78
2023-05-14T10:08:21.832Z,195.50
2023-05-14T10:09:21.895Z,196.32
2023-05-14T10:10:22.042Z,197.12
2023-05-14T10:11:22.045Z,196.15
2023-05-14T10:12:22.102Z,197.49
2023-05-14T10:13:22.163Z,198.50
2023-05-14T10:14:22.230Z,198.65
2023-05-14T10:15:22.293Z,199.13
2023-05-14T10:16:22.375Z,200.15
2023-05-14T10:17:22.414Z,200.96
2023-05-14T10:18:22.485Z,201.04
2023-05-14T10:19:22.825Z,200.64
2023-05-14T10:20:22.777Z,200.63
2023-05-14T10:21:22.686Z,201.93
2023-05-14T10:22:22.771Z,202.54
2023-05-14T10:23:22.798Z,203.90
2023-05-14T10:24:22.793Z,203.95
2023-05-14T10:25:22.785Z,203.97
2023-05-14T10:26:24.015Z,204.13
2023-05-14T10:27:22.792Z,205.21
2023-05-14T10:28:22.798Z,204.88
2023-05-14T10:29:22.778Z,206.30
2023-05-14T10:30:22.952Z,205.85
2023-05-14T10:31:22.807Z,205.95
2023-05-14T10:32:22.773Z,205.97
2023-05-14T10:33:22.767Z,206.39
2023-05-14T10:34:22.755Z,205.98
2023-05-14T10:35:22.769Z,206.37
2023-05-14T10:36:22.744Z,206.76
2023-05-14T10:37:22.759Z,207.81
2023-05-14T10:38:22.759Z,208.00
2023-05-14T10:39:22.730Z,207.92
2023-05-14T10:40:22.981Z,209.07
2023-05-14T10:41:22.733Z,209.09
2023-05-14T10:42:22.801Z,208.04
2023-05-14T10:43:22.858Z,209.71
2023-05-14T10:44:22.933Z,210.90
2023-05-14T10:45:22.985Z,211.22
2023-05-14T10:46:23.087Z,211.49
2023-05-14T10:47:23.121Z,210.16
2023-05-14T10:48:23.213Z,210.68
2023-05-14T10:49:36.089Z,211.48
2023-05-14T10:50:24.543Z,211.56
2023-05-14T10:51:23.285Z,211.67
2023-05-14T10:52:23.225Z,211.35
2023-05-14T10:53:23.221Z,211.68
2023-05-14T10:54:23.212Z,213.02
2023-05-14T10:55:23.216Z,212.04
2023-05-14T10:56:23.211Z,212.20
2023-05-14T10:57:23.227Z,214.29
2023-05-14T10:58:23.206Z,214.34
2023-05-14T10:59:23.268Z,213.94
2023-05-14T11:00:23.463Z,212.25
2023-05-14T11:01:23.416Z,213.76
2023-05-14T11:02:23.517Z,214.51
2023-05-14T11:03:23.518Z,214.72
2023-05-14T11:04:23.560Z,215.47
2023-05-14T11:05:23.615Z,214.55
2023-05-14T11:06:23.676Z,214.31
2023-05-14T11:07:23.782Z,214.43
2023-05-14T11:08:26.490Z,215.68
2023-05-14T11:09:23.776Z,217.45
2023-05-14T11:10:24.193Z,215.35
2023-05-14T11:11:23.769Z,215.70
2023-05-14T11:12:23.766Z,215.47
2023-05-14T11:13:23.772Z,216.18
2023-05-14T11:14:23.767Z,216.16
2023-05-14T11:15:23.775Z,216.46
2023-05-14T11:16:24.205Z,216.56
2023-05-14T11:17:23.874Z,216.67
2023-05-14T11:18:23.786Z,216.62
2023-05-14T11:19:23.784Z,216.68
2023-05-14T11:20:24.053Z,217.05
2023-05-14T11:22:18.253Z,25.00
2023-05-14T11:23:18.274Z,25.00
2023-05-14T11:24:18.309Z,25.00
2023-05-14T11:25:18.377Z,25.00
2023-05-14T11:26:20.845Z,25.00
2023-05-14T11:27:18.376Z,25.91
2023-05-14T11:28:18.374Z,27.09
2023-05-14T11:29:18.382Z,27.28
2023-05-14T11:30:18.456Z,26.82
2023-05-14T11:31:18.308Z,27.60
2023-05-14T11:32:18.325Z,28.95
2023-05-14T11:33:18.290Z,28.73
2023-05-14T11:34:18.228Z,28.40
2023-05-14T11:35:18.192Z,27.63
2023-05-14T11:36:18.180Z,27.10
2023-05-14T11:37:18.152Z,25.31
2023-05-14T11:38:18.163Z,28.42
2023-05-14T11:39:18.093Z,29.45
2023-05-14T11:40:18.197Z,27.03
2023-05-14T11:41:18.060Z,28.08
2023-05-14T11:42:18.021Z,31.02
2023-05-14T11:43:18.000Z,29.50
2023-05-14T11:44:17.978Z,26.09
2023-05-14T11:45:17.950Z,33.12
2023-05-14T11:46:18.040Z,30.06
2023-05-14T11:47:17.892Z,28.86
2023-05-14T11:48:17.892Z,31.29
2023-05-14T11:49:17.853Z,32.46
2023-05-14T11:50:17.829Z,32.18
2023-05-14T11:51:17.874Z,31.04
2023-05-14T11:52:17.808Z,32.68
2023-05-14T11:53:17.781Z,28.89
2023-05-14T11:54:17.760Z,33.20
2023-05-14T11:55:17.738Z,30.72
2023-05-14T11:56:17.737Z,33.53
2023-05-14T11:57:17.704Z,32.88
2023-05-14T11:58:17.677Z,35.19
2023-05-14T11:59:17.651Z,33.23
2023-05-14T12:00:17.617Z,34.36
2023-05-14T12:01:17.592Z,35.06
2023-05-14T12:02:17.665Z,33.26
2023-05-14T12:03:17.766Z,35.51
2023-05-14T12:04:17.729Z,33.26
2023-05-14T12:05:17.715Z,38.53
2023-05-14T12:06:17.751Z,34.38
2023-05-14T12:07:17.796Z,37.28
2023-05-14T12:08:17.769Z,37.44
2023-05-14T12:09:17.750Z,35.64
2023-05-14T12:10:17.732Z,37.04
2023-05-14T12:11:17.685Z,39.40
2023-05-14T12:12:17.669Z,39.76
2023-05-14T12:13:17.642Z,39.69
2023-05-14T12:14:17.607Z,39.34
2023-05-14T12:15:17.577Z,38.87
2023-05-14T12:16:17.617Z,40.64
2023-05-14T12:17:17.623Z,39.21
2023-05-14T12:18:24.590Z,40.51
2023-05-14T12:19:18.666Z,40.87
2023-05-14T12:20:17.578Z,41.27
2023-05-14T12:21:17.542Z,41.20
2023-05-14T12:22:17.509Z,44.79
2023-05-14T12:23:17.497Z,47.36
2023-05-14T12:24:17.452Z,40.80
2023-05-14T12:25:17.502Z,41.11
2023-05-14T12:26:17.371Z,43.19
2023-05-14T12:27:17.358Z,42.14
2023-05-14T12:28:17.325Z,44.17
2023-05-14T12:29:17.309Z,46.59
2023-05-14T12:30:21.846Z,46.69
2023-05-14T12:31:18.293Z,46.92
2023-05-14T12:32:17.203Z,47.27
2023-05-14T12:33:17.199Z,47.31
2023-05-14T12:34:17.169Z,48.69
2023-05-14T12:35:17.131Z,48.48
2023-05-14T12:36:21.906Z,47.94
2023-05-14T12:37:18.057Z,48.04
2023-05-14T12:38:17.040Z,48.25
2023-05-14T12:39:17.003Z,48.23
2023-05-14T12:40:16.992Z,48.49
2023-05-14T12:41:16.942Z,48.26
2023-05-14T12:42:16.915Z,50.59
2023-05-14T12:43:16.888Z,51.08